FW3168 Weather Reports


Display with metric or nautical units.
time (UTC)temp
F
wind
direction
speed
MPH
gust
MPH
rain 1hr
in
rain 24hr
in
rain mn
in
humidity
%
barometer
mb
20210916160132 64 85 0.0 0.0 0.03 0.47 0.20 90 1017.9
20210916154543 64 32 0.0 0.0 0.04 0.47 0.20 90 1017.7
20210916153127 64 41 0.0 0.0 0.05 0.47 0.20 90 1017.7
20210916150040 64 51 0.0 0.0 0.02 0.44 0.17 90 1017.6
20210916144635 64 53 0.0 0.0 0.01 0.43 0.16 90 1017.6
20210916143056 64 59 0.0 0.0 0.01 0.43 0.16 90 1017.5
20210916140035 63 63 0.0 0.0 0.00 0.42 0.15 90 1017.1
20210916134547 63 33 0.0 0.0 0.01 0.42 0.15 90 1017.0
20210916133027 63 65 0.0 0.0 0.01 0.42 0.15 90 1016.8
20210916130029 63 43 0.0 0.0 0.01 0.42 0.15 90 1016.8
20210916124542 63 41 0.0 0.0 0.00 0.41 0.14 90 1016.5
20210916123038 63 46 0.0 0.0 0.00 0.41 0.14 90 1016.4
20210916120036 63 72 0.0 0.0 0.00 0.41 0.14 90 1016.2
20210916114529 63 352 0.0 0.0 0.00 0.41 0.14 90 1016.0
20210916113022 63 52 0.0 0.0 0.00 0.41 0.14 90 1015.9
20210916110011 63 31 0.0 0.0 0.00 0.41 0.14 90 1015.6
20210916104527 63 67 0.0 0.0 0.00 0.41 0.14 90 1015.6
20210916103016 63 44 0.0 0.0 0.00 0.41 0.14 89 1015.5
20210916100031 63 60 0.0 0.0 0.00 0.41 0.14 89 1015.3
20210916094515 63 58 0.0 0.0 0.01 0.41 0.14 89 1015.1
20210916093023 63 53 0.0 0.0 0.01 0.41 0.14 89 1014.9
20210916090018 63 52 0.0 0.0 0.02 0.41 0.14 89 1014.8
20210916084511 62 49 0.0 0.0 0.01 0.40 0.13 89 1014.9
20210916083025 62 43 0.0 0.0 0.02 0.40 0.13 89 1014.7
20210916080002 62 57 0.0 0.0 0.01 0.39 0.12 89 1015.0
20210916074510 62 69 0.0 0.0 0.02 0.39 0.12 89 1014.9
20210916073220 62 56 0.0 0.0 0.02 0.38 0.11 89 1014.9
20210916070218 62 56 0.0 0.0 0.03 0.38 0.11 89 1015.0
20210916064714 62 65 0.0 0.0 0.03 0.37 0.10 89 1015.0
20210916063123 61 70 0.0 0.0 0.03 0.36 0.09 89 1015.1
20210916060144 61 59 0.0 1.0 0.04 0.35 0.08 88 1014.8
20210916054617 61 103 0.0 1.0 0.04 0.34 0.07 88 1015.0
20210916053103 61 37 0.0 1.0 0.04 0.33 0.06 88 1015.1
20210916050110 61 49 0.0 1.0 0.04 0.31 0.04 88 1015.3
20210916044707 61 44 0.0 1.0 0.06 0.30 0.03 88 1015.5
20210916043120 61 34 0.0 5.0 0.07 0.28 0.02 88 1015.6
20210916040143 61 49 0.0 6.0 0.09 0.27 0.00 88 1016.0
20210916034632 61 49 0.0 6.0 0.08 0.25 0.25 87 1016.1
20210916033109 61 59 3.0 7.0 0.08 0.23 0.23 87 1016.1
20210916030125 62 46 6.0 9.0 0.06 0.19 0.19 87 1016.0
20210916023131 61 49 8.0 11.0 0.05 0.15 0.15 87 1015.9
20210916020048 61 69 8.0 13.0 0.04 0.13 0.13 88 1015.7
20210916014604 61 53 9.0 15.0 0.04 0.12 0.12 88 1015.5
20210916013041 61 21 8.0 11.0 0.03 0.11 0.11 89 1015.3
20210916010053 61 75 7.0 11.0 0.01 0.09 0.09 89 1015.2
20210916004545 61 59 7.0 10.0 0.01 0.09 0.09 89 1015.0
20210916003048 61 39 8.0 12.0 0.01 0.08 0.08 90 1014.8
20210916000058 61 57 9.0 13.0 0.01 0.08 0.08 89 1014.5
20210915234606 61 29 7.0 11.0 0.02 0.08 0.08 91 1014.5
20210915233050 62 36 7.0 10.0 0.01 0.07 0.07 88 1014.5
20210915230052 62 43 5.0 8.0 0.02 0.07 0.07 88 1014.5
20210915224528 63 43 5.0 7.0 0.01 0.06 0.06 90 1014.5
20210915223101 63 46 4.0 5.0 0.02 0.06 0.06 91 1014.5
20210915220027 63 44 4.0 5.0 0.03 0.05 0.05 92 1014.4
20210915214536 63 59 2.0 5.0 0.03 0.05 0.05 92 1014.4
20210915213026 63 49 3.0 5.0 0.02 0.04 0.04 92 1014.4
20210915210012 63 56 2.0 4.0 0.02 0.03 0.03 88 1014.1
20210915204526 63 56 3.0 5.0 0.01 0.02 0.02 89 1013.9
20210915203019 64 53 3.0 6.0 0.02 0.02 0.02 90 1013.8
20210915200005 69 121 0.0 3.0 0.01 0.01 0.01 92 1013.6
20210915194504 69 65 0.0 2.0 0.01 0.01 0.01 92 1013.6
20210915193005 69 77 0.0 2.0 0.00 0.00 0.00 92 1013.7
20210915190004 69 94 0.0 2.0 0.00 0.00 0.00 92 1014.0
20210915184519 69 79 0.0 2.0 0.00 0.00 0.00 92 1014.1
20210915183011 69 64 0.0 1.0 0.00 0.00 0.00 92 1014.4
20210915180038 70 79 0.0 2.0 0.00 0.00 0.00 92 1014.7
20210915174504 70 58 0.0 2.0 0.00 0.00 0.00 92 1014.9
20210915173002 70 67 0.0 0.0 0.00 0.00 0.00 91 1015.0
20210915170243 70 79 0.0 1.0 0.00 0.00 0.00 91 1015.2
20210915164658 70 60 0.0 1.0 0.00 0.00 0.00 90 1015.3
20210915163238 70 66 0.0 2.0 0.00 0.00 0.00 91 1015.3